Time;durP1;ratioP1;P1;durP2;ratioP2;P2;SDS_P1;SDS_P2;PMS_P1;PMS_P2;Temp;Humidity;BMP_temperature;BMP_pressure;BME280_temperature;BME280_humidity;BME280_pressure;Samples;Min_cycle;Max_cycle;Signal;HPM_P1;HPM_P2
2021/04/18 00:00:20;;;;;;;;;;;;;;;0.67;100.00;99996.81;5054385;28;19928;-74
2021/04/18 00:02:47;;;;;;;;;;;;;;;0.64;100.00;99993.94;5054290;28;19925;-74
2021/04/18 00:05:19;;;;;;;;;;;;;;;0.62;100.00;99993.47;5054402;28;19925;-75
2021/04/18 00:07:47;;;;;;;;;;;;;;;0.53;100.00;99990.78;5037144;28;20296;-75
2021/04/18 00:10:14;;;;;;;;;;;;;;;0.49;100.00;99987.09;5054363;28;19925;-75
2021/04/18 00:12:40;;;;;;;;;;;;;;;0.57;100.00;99991.75;5054320;28;19943;-75
2021/04/18 00:15:09;;;;;;;;;;;;;;;0.61;100.00;99986.34;5054146;28;20019;-74
2021/04/18 00:17:35;;;;;;;;;;;;;;;0.72;100.00;99985.63;5054605;28;19932;-74
2021/04/18 00:20:10;;;;;;;;;;;;;;;0.66;100.00;99986.97;5054652;28;19951;-74
2021/04/18 00:22:37;;;;;;;;;;;;;;;0.66;100.00;99984.22;5037024;28;19932;-74
2021/04/18 00:25:05;;;;;;;;;;;;;;;0.49;100.00;99978.84;5037016;28;19931;-74
2021/04/18 00:27:32;;;;;;;;;;;;;;;0.49;100.00;99980.78;5054329;28;19925;-74
2021/04/18 00:29:59;;;;;;;;;;;;;;;0.33;100.00;99980.59;5054222;28;20015;-74
2021/04/18 00:32:25;;;;;;;;;;;;;;;0.32;100.00;99984.47;5054561;28;20023;-75
2021/04/18 00:34:52;;;;;;;;;;;;;;;0.29;100.00;99979.63;5073577;28;20538;-75
2021/04/18 00:37:19;;;;;;;;;;;;;;;0.24;100.00;99977.09;5062753;28;19931;-74
2021/04/18 00:39:46;;;;;;;;;;;;;;;0.21;100.00;99977.78;5054245;28;19978;-75
2021/04/18 00:42:13;;;;;;;;;;;;;;;0.14;100.00;99980.22;5054234;28;19931;-75
2021/04/18 00:44:39;;;;;;;;;;;;;;;0.15;100.00;99989.28;5019903;28;19925;-74
2021/04/18 00:47:06;;;;;;;;;;;;;;;0.08;100.00;99989.78;5054085;28;20031;-74
2021/04/18 00:49:33;;;;;;;;;;;;;;;0.02;100.00;99980.13;5054203;28;19975;-75
2021/04/18 00:51:59;;;;;;;;;;;;;;;0.02;100.00;99984.84;5054102;28;19925;-74
2021/04/18 00:54:26;;;;;;;;;;;;;;;0.14;100.00;99982.19;5054264;28;19929;-74
2021/04/18 00:56:53;;;;;;;;;;;;;;;0.13;100.00;99981.38;5035973;28;19931;-74
2021/04/18 00:59:20;;;;;;;;;;;;;;;0.25;100.00;99973.19;5035998;28;19925;-74
2021/04/18 01:01:46;;;;;;;;;;;;;;;0.12;100.00;99968.78;5054072;28;20323;-74
2021/04/18 01:04:16;;;;;;;;;;;;;;;0.11;100.00;99966.38;5020433;28;19932;-74
2021/04/18 01:06:42;;;;;;;;;;;;;;;-0.08;100.00;99964.81;5050224;28;19994;-75
2021/04/18 01:09:11;;;;;;;;;;;;;;;-0.06;100.00;99964.50;5036211;28;19925;-74
2021/04/18 01:11:38;;;;;;;;;;;;;;;-0.13;100.00;99961.47;5036102;28;19925;-74
2021/04/18 01:14:05;;;;;;;;;;;;;;;-0.06;100.00;99961.75;5031881;28;19933;-74
2021/04/18 01:16:32;;;;;;;;;;;;;;;-0.11;100.00;99959.22;5033836;28;19931;-74
2021/04/18 01:18:59;;;;;;;;;;;;;;;-0.16;100.00;99956.63;5020626;28;20007;-74
2021/04/18 01:21:26;;;;;;;;;;;;;;;-0.15;100.00;99952.75;5019779;28;19932;-74
2021/04/18 01:23:57;;;;;;;;;;;;;;;-0.16;100.00;99956.63;5035822;28;19925;-74
2021/04/18 01:26:28;;;;;;;;;;;;;;;-0.08;100.00;99958.53;5053483;28;19931;-74
2021/04/18 01:28:56;;;;;;;;;;;;;;;-0.08;100.00;99958.53;5035889;28;20011;-74
2021/04/18 01:31:24;;;;;;;;;;;;;;;-0.05;100.00;99946.88;5040472;28;19994;-74
2021/04/18 01:33:52;;;;;;;;;;;;;;;-0.06;100.00;99945.25;5072704;28;20356;-74
2021/04/18 01:36:19;;;;;;;;;;;;;;;-0.25;100.00;99942.16;5056011;28;19932;-74
2021/04/18 01:38:47;;;;;;;;;;;;;;;-0.31;100.00;99937.97;5053440;28;19924;-74
2021/04/18 01:41:14;;;;;;;;;;;;;;;-0.38;100.00;99929.47;5051982;28;20019;-74
2021/04/18 01:43:41;;;;;;;;;;;;;;;-0.32;100.00;99925.41;5053222;28;19939;-74
2021/04/18 01:46:09;;;;;;;;;;;;;;;-0.42;100.00;99936.72;5035543;28;20330;-74
2021/04/18 01:48:37;;;;;;;;;;;;;;;-0.36;100.00;99936.22;5035474;28;19971;-74
2021/04/18 01:51:06;;;;;;;;;;;;;;;-0.28;100.00;99937.31;5053304;28;19928;-74
2021/04/18 01:53:33;;;;;;;;;;;;;;;-0.30;100.00;99928.59;5035764;28;20288;-74
2021/04/18 01:56:01;;;;;;;;;;;;;;;-0.46;100.00;99917.38;5035413;28;19948;-74
2021/04/18 01:58:30;;;;;;;;;;;;;;;-0.48;100.00;99921.56;5018979;28;20296;-74
2021/04/18 02:01:12;;;;;;;;;;;;;;;-0.40;100.00;99918.00;5053286;28;19929;-74
2021/04/18 02:03:42;;;;;;;;;;;;;;;-0.33;100.00;99918.28;5053109;28;19933;-74
2021/04/18 02:06:10;;;;;;;;;;;;;;;-0.34;100.00;99922.16;5053061;28;19931;-74
2021/04/18 02:08:46;;;;;;;;;;;;;;;-0.50;100.00;99907.41;5035191;28;20304;-74
2021/04/18 02:11:18;;;;;;;;;;;;;;;-0.83;100.00;99911.88;5035367;28;20467;-74
2021/04/18 02:13:45;;;;;;;;;;;;;;;-0.88;100.00;99910.09;5035539;28;19995;-74
2021/04/18 02:16:34;;;;;;;;;;;;;;;-0.74;100.00;99913.44;5037851;28;19925;-74
2021/04/18 02:19:05;;;;;;;;;;;;;;;-0.62;100.00;99921.00;5035247;28;19932;-74
2021/04/18 02:21:36;;;;;;;;;;;;;;;-0.67;100.00;99923.94;5035352;28;19925;-74
2021/04/18 02:24:03;;;;;;;;;;;;;;;-0.66;100.00;99918.13;5049279;28;20019;-74
2021/04/18 02:26:30;;;;;;;;;;;;;;;-0.62;100.00;99915.53;5056342;28;19932;-74
2021/04/18 02:28:58;;;;;;;;;;;;;;;-0.64;100.00;99920.53;5056729;28;19925;-74
2021/04/18 02:31:27;;;;;;;;;;;;;;;-0.70;100.00;99914.44;5039006;28;20360;-74
2021/04/18 02:33:54;;;;;;;;;;;;;;;-0.60;100.00;99915.97;5056641;28;19956;-74
2021/04/18 02:36:22;;;;;;;;;;;;;;;-0.63;100.00;99919.38;5038924;28;19925;-74
2021/04/18 02:38:49;;;;;;;;;;;;;;;-0.75;100.00;99911.84;5038881;28;19970;-74
2021/04/18 02:41:16;;;;;;;;;;;;;;;-0.87;100.00;99905.44;5038399;28;19929;-74
2021/04/18 02:43:42;;;;;;;;;;;;;;;-0.84;100.00;99907.53;5056802;28;19931;-74
2021/04/18 02:46:10;;;;;;;;;;;;;;;-0.86;100.00;99912.53;5038012;28;20387;-74
2021/04/18 02:48:37;;;;;;;;;;;;;;;-0.95;100.00;99919.97;5038428;28;19924;-74
2021/04/18 02:51:04;;;;;;;;;;;;;;;-0.93;100.00;99910.31;5056410;28;20402;-74
2021/04/18 02:53:32;;;;;;;;;;;;;;;-0.93;100.00;99910.31;5038778;28;19978;-74
2021/04/18 02:55:59;;;;;;;;;;;;;;;-0.97;100.00;99919.53;5055967;28;20024;-74
2021/04/18 02:58:39;;;;;;;;;;;;;;;-1.04;100.00;99913.72;5038505;28;19932;-74
2021/04/18 03:01:06;;;;;;;;;;;;;;;-1.01;100.00;99910.31;5056358;28;20300;-74
2021/04/18 03:03:34;;;;;;;;;;;;;;;-0.97;100.00;99911.28;5022462;28;19925;-74
2021/04/18 03:06:01;;;;;;;;;;;;;;;-0.91;100.00;99907.22;5056409;28;19935;-74
2021/04/18 03:08:28;;;;;;;;;;;;;;;-0.86;100.00;99909.78;5056410;28;20362;-74
2021/04/18 03:10:55;;;;;;;;;;;;;;;-0.91;100.00;99913.50;5038176;28;19924;-74
2021/04/18 03:13:23;;;;;;;;;;;;;;;-1.04;100.00;99908.22;5038406;28;20407;-74
2021/04/18 03:15:51;;;;;;;;;;;;;;;-0.97;100.00;99903.84;5038141;28;19936;-74
2021/04/18 03:18:18;;;;;;;;;;;;;;;-0.99;100.00;99894.34;5038385;28;19925;-75
2021/04/18 03:20:50;;;;;;;;;;;;;;;-0.90;100.00;99900.59;5022723;28;19924;-74
2021/04/18 03:23:20;;;;;;;;;;;;;;;-0.86;100.00;99896.88;5021422;28;19925;-75
2021/04/18 03:25:50;;;;;;;;;;;;;;;-0.93;100.00;99893.84;5038160;28;19946;-74
2021/04/18 03:28:18;;;;;;;;;;;;;;;-0.98;100.00;99899.50;5037970;28;19925;-74
2021/04/18 03:30:48;;;;;;;;;;;;;;;-1.06;100.00;99889.34;5038382;28;19954;-74
2021/04/18 03:33:19;;;;;;;;;;;;;;;-1.11;100.00;99897.78;5055732;28;20360;-74
2021/04/18 03:35:50;;;;;;;;;;;;;;;-1.00;100.00;99890.00;5021472;28;20307;-74
2021/04/18 03:38:17;;;;;;;;;;;;;;;-0.91;100.00;99886.06;5023377;28;20297;-74
2021/04/18 03:40:46;;;;;;;;;;;;;;;-0.80;100.00;99886.50;5021775;28;20339;-74
2021/04/18 03:43:15;;;;;;;;;;;;;;;-0.83;100.00;99893.47;5038499;28;20234;-74
2021/04/18 03:45:42;;;;;;;;;;;;;;;-0.93;100.00;99885.63;5055504;28;19974;-74
2021/04/18 03:48:11;;;;;;;;;;;;;;;-1.06;100.00;99878.38;5021290;28;20364;-74
2021/04/18 03:50:38;;;;;;;;;;;;;;;-1.04;100.00;99880.78;5021624;28;19925;-74
2021/04/18 03:53:18;;;;;;;;;;;;;;;-1.10;100.00;99873.88;5037289;28;19943;-74
2021/04/18 03:55:50;;;;;;;;;;;;;;;-1.13;100.00;99877.28;5037700;28;19925;-74
2021/04/18 03:58:22;;;;;;;;;;;;;;;-1.18;100.00;99874.72;5037534;28;19936;-74
2021/04/18 04:00:56;;;;;;;;;;;;;;;-1.18;100.00;99874.72;5037636;28;20023;-74
2021/04/18 04:03:24;;;;;;;;;;;;;;;-1.22;100.00;99876.50;5037446;28;19960;-74
2021/04/18 04:05:54;;;;;;;;;;;;;;;-1.30;100.00;99869.13;5037483;28;19929;-74
2021/04/18 04:08:25;;;;;;;;;;;;;;;-1.27;100.00;99871.19;5036449;28;19968;-74
2021/04/18 04:10:52;;;;;;;;;;;;;;;-1.33;100.00;99870.53;5037394;28;19925;-75
2021/04/18 04:13:21;;;;;;;;;;;;;;;-1.39;100.00;99868.31;5037401;28;19929;-74
2021/04/18 04:15:50;;;;;;;;;;;;;;;-1.41;100.00;99865.91;5054942;28;19935;-74
2021/04/18 04:18:17;;;;;;;;;;;;;;;-1.27;100.00;99871.19;5036867;28;19931;-75
2021/04/18 04:21:09;;;;;;;;;;;;;;;-1.22;100.00;99868.25;5030975;28;19925;-75
2021/04/18 04:23:54;;;;;;;;;;;;;;;-1.31;100.00;99873.78;5054830;28;20023;-74
2021/04/18 04:26:21;;;;;;;;;;;;;;;-1.33;100.00;99869.75;5054885;28;19936;-74
2021/04/18 04:28:48;;;;;;;;;;;;;;;-1.38;100.00;99869.94;5036701;28;19925;-74
2021/04/18 04:31:14;;;;;;;;;;;;;;;-1.28;100.00;99870.38;5054461;28;19925;-74
2021/04/18 04:33:41;;;;;;;;;;;;;;;-1.31;100.00;99864.75;5054401;28;19940;-74
2021/04/18 04:36:08;;;;;;;;;;;;;;;-1.33;100.00;99869.75;5053999;28;19932;-74
2021/04/18 04:38:36;;;;;;;;;;;;;;;-1.33;100.00;99872.50;5054346;28;19929;-74
2021/04/18 04:41:02;;;;;;;;;;;;;;;-1.29;100.00;99874.28;5036632;28;19928;-74
2021/04/18 04:43:29;;;;;;;;;;;;;;;-1.33;100.00;99876.03;5054276;28;19925;-74
2021/04/18 04:45:56;;;;;;;;;;;;;;;-1.37;100.00;99877.00;5054216;28;19925;-74
2021/04/18 04:48:23;;;;;;;;;;;;;;;-1.32;100.00;99874.09;5053288;28;19925;-74
2021/04/18 04:50:50;;;;;;;;;;;;;;;-1.21;100.00;99880.88;5036322;28;19925;-74
2021/04/18 04:53:16;;;;;;;;;;;;;;;-1.10;100.00;99877.44;5036619;28;19971;-74
2021/04/18 04:55:46;;;;;;;;;;;;;;;-1.03;100.00;99882.44;5036104;28;20354;-75
2021/04/18 04:58:13;;;;;;;;;;;;;;;-0.92;100.00;99887.22;5053933;28;19928;-74
2021/04/18 05:00:40;;;;;;;;;;;;;;;-0.85;100.00;99892.19;5053997;28;19924;-74
2021/04/18 05:03:07;;;;;;;;;;;;;;;-0.92;100.00;99883.66;5053883;28;19925;-74
2021/04/18 05:05:34;;;;;;;;;;;;;;;-0.92;100.00;99878.16;5053603;28;19925;-74
2021/04/18 05:08:01;;;;;;;;;;;;;;;-0.95;100.00;99884.31;5053443;28;19924;-74
2021/04/18 05:10:27;;;;;;;;;;;;;;;-0.96;100.00;99883.53;5053651;28;20023;-74
2021/04/18 05:12:54;;;;;;;;;;;;;;;-0.93;100.00;99880.13;5036108;28;19924;-74
2021/04/18 05:15:22;;;;;;;;;;;;;;;-0.89;100.00;99881.06;5036214;28;19925;-75
2021/04/18 05:17:49;;;;;;;;;;;;;;;-0.89;100.00;99883.00;5036009;28;19925;-74
2021/04/18 05:20:17;;;;;;;;;;;;;;;-0.67;100.00;99885.50;5053447;28;19932;-74
2021/04/18 05:22:44;;;;;;;;;;;;;;;-0.55;100.00;99889.16;5053684;28;19929;-74
2021/04/18 05:25:12;;;;;;;;;;;;;;;-0.26;100.00;99891.91;5053625;28;19971;-74
2021/04/18 05:27:39;;;;;;;;;;;;;;;0.08;100.00;99879.88;5036071;28;19925;-74
2021/04/18 05:30:08;;;;;;;;;;;;;;;0.50;100.00;99872.41;5003998;28;19925;-75
2021/04/18 05:32:35;;;;;;;;;;;;;;;0.89;100.00;99878.19;5053101;28;19997;-75
2021/04/18 05:35:03;;;;;;;;;;;;;;;1.04;100.00;99880.28;5035301;28;19924;-74
2021/04/18 05:37:30;;;;;;;;;;;;;;;1.13;100.00;99877.41;5052876;28;19925;-74
2021/04/18 05:39:57;;;;;;;;;;;;;;;1.16;100.00;99877.53;5035420;28;20384;-74
2021/04/18 05:42:23;;;;;;;;;;;;;;;0.99;100.00;99883.22;5053271;28;20277;-75
2021/04/18 05:44:50;;;;;;;;;;;;;;;0.75;100.00;99880.41;5053090;28;20299;-75
2021/04/18 05:47:17;;;;;;;;;;;;;;;0.80;100.00;99882.16;5052786;28;19925;-75
2021/04/18 05:49:43;;;;;;;;;;;;;;;0.79;100.00;99886.84;5019158;28;19929;-75
2021/04/18 05:52:10;;;;;;;;;;;;;;;0.75;100.00;99885.91;5053278;28;19925;-74
2021/04/18 05:54:37;;;;;;;;;;;;;;;0.71;100.00;99876.72;5053185;28;19925;-74
2021/04/18 05:57:10;;;;;;;;;;;;;;;0.71;100.00;99876.72;5053039;28;19972;-74
2021/04/18 05:59:52;;;;;;;;;;;;;;;0.81;100.00;99878.25;5022758;28;20292;-74
2021/04/18 06:02:19;;;;;;;;;;;;;;;0.96;100.00;99883.91;5057353;28;20292;-74
2021/04/18 06:04:46;;;;;;;;;;;;;;;0.97;100.00;99877.25;5057027;28;19925;-74
2021/04/18 06:07:13;;;;;;;;;;;;;;;1.07;100.00;99884.28;5057224;28;19994;-74
2021/04/18 06:09:40;;;;;;;;;;;;;;;1.20;100.00;99877.63;5051251;28;20026;-74
2021/04/18 06:12:07;;;;;;;;;;;;;;;1.28;100.00;99880.31;5046257;28;19933;-74
2021/04/18 06:14:34;;;;;;;;;;;;;;;1.30;100.00;99886.25;5029611;28;20384;-74
2021/04/18 06:17:01;;;;;;;;;;;;;;;1.28;100.00;99885.81;5055659;28;20303;-74
2021/04/18 06:19:32;;;;;;;;;;;;;;;1.31;100.00;99887.06;5038888;28;19929;-74
2021/04/18 06:21:59;;;;;;;;;;;;;;;1.19;100.00;99882.34;5038010;28;19925;-74
2021/04/18 06:24:25;;;;;;;;;;;;;;;1.18;100.00;99880.72;5038309;28;20044;-74
2021/04/18 06:26:52;;;;;;;;;;;;;;;1.24;100.00;99884.09;5055810;28;19936;-74
2021/04/18 06:29:18;;;;;;;;;;;;;;;1.32;100.00;99878.47;5038182;28;19932;-74
2021/04/18 06:31:46;;;;;;;;;;;;;;;1.39;100.00;99880.66;5055347;28;20051;-74
2021/04/18 06:34:13;;;;;;;;;;;;;;;1.53;100.00;99886.63;5055242;28;20376;-74
2021/04/18 06:36:40;;;;;;;;;;;;;;;1.65;100.00;99884.66;5055793;28;20413;-74
2021/04/18 06:39:07;;;;;;;;;;;;;;;1.76;100.00;99874.78;5055608;28;20020;-74
2021/04/18 06:41:34;;;;;;;;;;;;;;;1.82;100.00;99878.91;5037826;28;19932;-74
2021/04/18 06:44:02;;;;;;;;;;;;;;;1.99;100.00;99877.06;5055555;28;19925;-74
2021/04/18 06:46:28;;;;;;;;;;;;;;;2.09;100.00;99887.63;5048275;28;19925;-74
2021/04/18 06:48:58;;;;;;;;;;;;;;;2.15;100.00;99887.00;5030946;28;19925;-74
2021/04/18 06:51:25;;;;;;;;;;;;;;;2.31;100.00;99878.81;5055471;28;20299;-74
2021/04/18 06:53:51;;;;;;;;;;;;;;;2.48;100.00;99878.53;5055370;28;20372;-74
2021/04/18 06:56:18;;;;;;;;;;;;;;;2.44;100.00;99883.16;5037470;28;19929;-74
2021/04/18 06:58:46;;;;;;;;;;;;;;;2.67;100.00;99889.72;5055381;28;20372;-75
2021/04/18 07:01:13;;;;;;;;;;;;;;;2.64;100.00;99879.38;5037335;28;20392;-75
2021/04/18 07:03:40;;;;;;;;;;;;;;;2.62;100.00;99873.44;5021104;28;19979;-75
2021/04/18 07:06:07;;;;;;;;;;;;;;;2.73;100.00;99880.03;5055487;28;19956;-75
2021/04/18 07:08:35;;;;;;;;;;;;;;;2.88;100.00;99882.84;5037425;28;19951;-75
2021/04/18 07:11:14;;;;;;;;;;;;;;;3.10;100.00;99884.22;5054676;28;20307;-75
2021/04/18 07:13:42;;;;;;;;;;;;;;;3.25;100.00;99880.66;5054913;28;19972;-75
2021/04/18 07:16:25;;;;;;;;;;;;;;;3.34;100.00;99884.06;5053204;28;19925;-75
2021/04/18 07:18:52;;;;;;;;;;;;;;;3.57;100.00;99887.81;5037574;28;19936;-75
2021/04/18 07:21:20;;;;;;;;;;;;;;;3.70;100.00;99887.34;5055747;28;19968;-75
2021/04/18 07:23:47;;;;;;;;;;;;;;;3.88;100.00;99887.75;5054872;28;20441;-75
2021/04/18 07:26:16;;;;;;;;;;;;;;;3.95;100.00;99879.66;5054910;28;19931;-75
2021/04/18 07:28:43;;;;;;;;;;;;;;;4.09;100.00;99877.19;5037186;28;19936;-75
2021/04/18 07:31:10;;;;;;;;;;;;;;;4.19;100.00;99884.94;5054585;28;19925;-75
2021/04/18 07:34:06;;;;;;;;;;;;;;;4.27;100.00;99883.13;5056805;28;20016;-75
2021/04/18 07:36:34;;;;;;;;;;;;;;;4.04;100.00;99877.47;5020699;28;19925;-75
2021/04/18 07:39:00;;;;;;;;;;;;;;;3.97;100.00;99874.53;5037366;28;19931;-75
2021/04/18 07:41:27;;;;;;;;;;;;;;;3.67;100.00;99878.97;5054651;28;20042;-75
2021/04/18 07:43:54;;;;;;;;;;;;;;;3.57;100.00;99883.06;5037257;28;19928;-74
2021/04/18 07:46:21;;;;;;;;;;;;;;;3.84;100.00;99880.53;5054166;28;20319;-75
2021/04/18 07:48:48;;;;;;;;;;;;;;;4.19;100.00;99878.59;5054480;28;19925;-75
2021/04/18 07:51:15;;;;;;;;;;;;;;;4.68;100.00;99882.44;5020589;28;19928;-75
2021/04/18 07:53:43;;;;;;;;;;;;;;;5.10;100.00;99872.94;5036574;28;19935;-75
2021/04/18 07:56:11;;;;;;;;;;;;;;;5.28;100.00;99874.09;5054473;28;19968;-75
2021/04/18 07:58:39;;;;;;;;;;;;;;;5.34;100.00;99867.06;5036592;28;19932;-75
2021/04/18 08:01:06;;;;;;;;;;;;;;;5.63;100.00;99867.53;5053501;28;19925;-75
2021/04/18 08:03:33;;;;;;;;;;;;;;;5.90;100.00;99858.09;5054112;28;19983;-74
2021/04/18 08:06:00;;;;;;;;;;;;;;;6.14;100.00;99855.69;5004367;28;19931;-75
2021/04/18 08:08:44;;;;;;;;;;;;;;;6.77;100.00;99856.50;5054181;28;20383;-75
2021/04/18 08:11:12;;;;;;;;;;;;;;;7.19;100.00;99850.63;5054418;28;19925;-75
2021/04/18 08:13:41;;;;;;;;;;;;;;;7.62;100.00;99847.00;5035855;28;19960;-73
2021/04/18 08:16:08;;;;;;;;;;;;;;;7.93;100.00;99846.47;5053981;28;19929;-73
2021/04/18 08:18:42;;;;;;;;;;;;;;;8.11;100.00;99841.81;5053965;28;20532;-74
2021/04/18 08:21:22;;;;;;;;;;;;;;;8.36;100.00;99845.56;5054152;28;19929;-74
2021/04/18 08:23:49;;;;;;;;;;;;;;;8.44;100.00;99830.50;5053415;28;19925;-74
2021/04/18 08:26:17;;;;;;;;;;;;;;;8.54;100.00;99835.28;5053549;28;19925;-74
2021/04/18 08:28:53;;;;;;;;;;;;;;;8.74;100.00;99836.56;5053098;28;19964;-74
2021/04/18 08:31:21;;;;;;;;;;;;;;;8.88;100.00;99835.81;5053635;28;19971;-74
2021/04/18 08:33:47;;;;;;;;;;;;;;;9.07;100.00;99833.47;5022926;28;19929;-74
2021/04/18 08:36:15;;;;;;;;;;;;;;;9.15;100.00;99821.16;5034070;28;20011;-74
2021/04/18 08:38:43;;;;;;;;;;;;;;;9.26;100.00;99834.31;5028216;28;19969;-75
2021/04/18 08:41:12;;;;;;;;;;;;;;;9.45;100.00;99843.09;5058181;28;19929;-75
2021/04/18 08:43:39;;;;;;;;;;;;;;;9.88;100.00;99841.09;5048849;28;19925;-74
2021/04/18 08:46:06;;;;;;;;;;;;;;;10.30;100.00;99838.28;5048982;28;20343;-74
2021/04/18 08:48:34;;;;;;;;;;;;;;;10.56;100.00;99823.81;5047662;28;19925;-74
2021/04/18 08:51:05;;;;;;;;;;;;;;;10.75;100.00;99826.13;5049322;28;19932;-74
2021/04/18 08:53:53;;;;;;;;;;;;;;;10.72;100.00;99810.19;5045951;28;19928;-74
2021/04/18 08:56:20;;;;;;;;;;;;;;;10.61;100.00;99812.22;5047798;28;19932;-74
2021/04/18 08:58:47;;;;;;;;;;;;;;;10.36;100.00;99808.75;5044570;28;19951;-75
2021/04/18 09:01:16;;;;;;;;;;;;;;;10.14;100.00;99816.38;5047432;28;20011;-74
2021/04/18 09:03:56;;;;;;;;;;;;;;;10.07;100.00;99821.19;5047146;28;19925;-74
2021/04/18 09:06:33;;;;;;;;;;;;;;;10.17;100.00;99812.78;5046257;28;19932;-74
2021/04/18 09:09:01;;;;;;;;;;;;;;;10.29;100.00;99803.97;5050941;28;19925;-73
2021/04/18 09:11:55;;;;;;;;;;;;;;;10.15;100.00;99798.41;5046885;28;20023;-74
2021/04/18 09:14:28;;;;;;;;;;;;;;;10.41;100.00;99805.50;5036979;28;19948;-73
2021/04/18 09:17:21;;;;;;;;;;;;;;;10.63;100.00;99801.44;5047252;28;19935;-74
2021/04/18 09:19:49;;;;;;;;;;;;;;;10.71;100.00;99803.78;5048265;28;20012;-75
2021/04/18 09:22:20;;;;;;;;;;;;;;;10.89;100.00;99803.69;5045137;28;19971;-75
2021/04/18 09:24:55;;;;;;;;;;;;;;;11.04;100.00;99802.41;5041379;28;19932;-74
2021/04/18 09:27:23;;;;;;;;;;;;;;;10.83;100.00;99796.94;5049437;28;19929;-73
2021/04/18 09:29:51;;;;;;;;;;;;;;;10.63;100.00;99798.66;5052699;28;20090;-74
2021/04/18 09:32:19;;;;;;;;;;;;;;;10.40;100.00;99806.72;5040470;28;20296;-78
2021/04/18 09:34:46;;;;;;;;;;;;;;;10.53;100.00;99803.06;5038760;28;20116;-79
2021/04/18 09:37:33;;;;;;;;;;;;;;;10.62;100.00;99799.81;5046770;28;20040;-79
2021/04/18 09:40:02;;;;;;;;;;;;;;;10.59;100.00;99800.63;5024899;28;20016;-78
2021/04/18 09:42:31;;;;;;;;;;;;;;;10.87;100.00;99794.94;5043302;28;19925;-77
2021/04/18 09:45:24;;;;;;;;;;;;;;;10.86;100.00;99796.09;5041538;28;19931;-79
2021/04/18 09:48:11;;;;;;;;;;;;;;;10.73;100.00;99789.41;5027225;28;20015;-80
2021/04/18 09:51:02;;;;;;;;;;;;;;;10.83;100.00;99792.13;5037864;28;20019;-80
2021/04/18 09:53:29;;;;;;;;;;;;;;;10.69;100.00;99797.78;5046733;28;19991;-79
2021/04/18 09:56:01;;;;;;;;;;;;;;;10.46;100.00;99803.09;5044794;28;19929;-79
2021/04/18 09:58:33;;;;;;;;;;;;;;;10.49;100.00;99790.31;5041469;28;19925;-79
2021/04/18 10:01:00;;;;;;;;;;;;;;;10.44;100.00;99788.75;5047735;28;20045;-78
2021/04/18 10:03:35;;;;;;;;;;;;;;;9.80;100.00;99792.88;5032822;28;20374;-79
2021/04/18 10:06:01;;;;;;;;;;;;;;;10.27;100.00;99788.81;5047063;28;19925;-79
2021/04/18 10:08:32;;;;;;;;;;;;;;;10.34;100.00;99784.00;5046675;28;20344;-79
2021/04/18 10:11:05;;;;;;;;;;;;;;;10.62;100.00;99778.28;5047424;28;20317;-79
2021/04/18 10:13:36;;;;;;;;;;;;;;;10.60;100.00;99777.09;5044866;28;19971;-77
2021/04/18 10:16:16;;;;;;;;;;;;;;;11.05;100.00;99778.84;5046986;28;19925;-74
2021/04/18 10:19:02;;;;;;;;;;;;;;;11.40;100.00;99777.78;5045544;28;20284;-75
2021/04/18 10:21:29;;;;;;;;;;;;;;;11.68;100.00;99775.56;5046848;28;19929;-76
2021/04/18 10:23:55;;;;;;;;;;;;;;;11.91;100.00;99781.34;5046254;28;19936;-75
2021/04/18 10:26:23;;;;;;;;;;;;;;;11.77;100.00;99770.25;5045656;28;19975;-79
2021/04/18 10:28:50;;;;;;;;;;;;;;;11.99;100.00;99771.66;5046166;28;19992;-78
2021/04/18 10:31:18;;;;;;;;;;;;;;;12.00;100.00;99773.25;5035839;28;19978;-78
2021/04/18 10:33:45;;;;;;;;;;;;;;;11.99;100.00;99771.66;5046911;28;19970;-78
2021/04/18 10:36:12;;;;;;;;;;;;;;;11.70;100.00;99770.34;5046697;28;19974;-80
2021/04/18 10:38:39;;;;;;;;;;;;;;;11.49;100.00;99764.91;5045816;28;19925;-79
2021/04/18 10:41:07;;;;;;;;;;;;;;;11.63;100.00;99772.41;5011867;28;20027;-78
2021/04/18 10:43:34;;;;;;;;;;;;;;;11.59;100.00;99778.00;5028449;28;19929;-84
2021/04/18 10:46:01;;;;;;;;;;;;;;;12.05;100.00;99770.00;5044539;28;20279;-80
2021/04/18 10:48:28;;;;;;;;;;;;;;;12.32;100.00;99768.09;5031414;28;20714;-76
2021/04/18 10:50:55;;;;;;;;;;;;;;;12.43;100.00;99763.13;5031459;28;20266;-79
2021/04/18 10:53:22;;;;;;;;;;;;;;;12.66;100.00;99768.84;5047266;28;19929;-79
2021/04/18 10:55:55;;;;;;;;;;;;;;;12.24;100.00;99760.97;5050219;28;20315;-78
2021/04/18 10:58:21;;;;;;;;;;;;;;;12.08;100.00;99769.16;5049881;28;19974;-80
2021/04/18 11:00:49;;;;;;;;;;;;;;;11.92;100.00;99768.13;5040763;28;20293;-78
2021/04/18 11:03:15;;;;;;;;;;;;;;;12.37;100.00;99764.78;5050592;28;20288;-79
2021/04/18 11:05:45;;;;;;;;;;;;;;;12.42;100.00;99757.94;5044461;28;20007;-79
2021/04/18 11:08:13;;;;;;;;;;;;;;;12.37;100.00;99753.59;5047927;28;19977;-77
2021/04/18 11:10:39;;;;;;;;;;;;;;;12.33;100.00;99744.44;5049286;28;20403;-77
2021/04/18 11:13:06;;;;;;;;;;;;;;;12.41;100.00;99751.56;5030991;28;19928;-77
2021/04/18 11:15:33;;;;;;;;;;;;;;;12.81;100.00;99743.41;5049355;28;20395;-77
2021/04/18 11:18:00;;;;;;;;;;;;;;;12.51;100.00;99736.59;5032420;28;19929;-77
2021/04/18 11:20:26;;;;;;;;;;;;;;;12.85;100.00;99749.75;5049546;28;19929;-77
2021/04/18 11:22:53;;;;;;;;;;;;;;;12.22;100.00;99731.78;5049086;28;19974;-77
2021/04/18 11:25:20;;;;;;;;;;;;;;;12.25;100.00;99728.91;5050174;28;19929;-77
2021/04/18 11:27:47;;;;;;;;;;;;;;;12.06;100.00;99732.34;5049347;28;20392;-77
2021/04/18 11:30:14;;;;;;;;;;;;;;;12.20;100.00;99732.19;5049760;28;19925;-77
2021/04/18 11:32:41;;;;;;;;;;;;;;;12.72;100.00;99735.53;5049788;28;20012;-77
2021/04/18 11:35:09;;;;;;;;;;;;;;;12.91;100.00;99726.44;5048843;28;19933;-77
2021/04/18 11:37:36;;;;;;;;;;;;;;;12.59;100.00;99726.88;5049613;28;20403;-77
2021/04/18 11:40:16;;;;;;;;;;;;;;;12.54;100.00;99721.75;5049572;28;19924;-76
2021/04/18 11:42:45;;;;;;;;;;;;;;;12.67;100.00;99722.78;5050978;28;20023;-77
2021/04/18 11:45:12;;;;;;;;;;;;;;;12.89;100.00;99728.84;5034450;28;19925;-77
2021/04/18 11:47:39;;;;;;;;;;;;;;;12.99;100.00;99719.50;5052961;28;19925;-77
2021/04/18 11:50:06;;;;;;;;;;;;;;;13.30;100.00;99715.41;5053506;28;20269;-77
2021/04/18 11:52:33;;;;;;;;;;;;;;;13.21;100.00;99715.16;5053972;28;19936;-77
2021/04/18 11:54:59;;;;;;;;;;;;;;;13.56;100.00;99711.75;5054261;28;19924;-77
2021/04/18 11:57:27;;;;;;;;;;;;;;;13.94;100.00;99713.06;5053388;28;19924;-77
2021/04/18 11:59:53;;;;;;;;;;;;;;;13.95;100.00;99711.06;5054003;28;19924;-77
2021/04/18 12:02:20;;;;;;;;;;;;;;;13.84;100.00;99704.84;5036658;28;20042;-77
2021/04/18 12:04:47;;;;;;;;;;;;;;;13.77;100.00;99704.94;5036389;28;20433;-77
2021/04/18 12:07:13;;;;;;;;;;;;;;;13.81;100.00;99705.69;5053703;28;19964;-77
2021/04/18 12:09:40;;;;;;;;;;;;;;;13.74;100.00;99694.56;5053876;28;19925;-77
2021/04/18 12:12:07;;;;;;;;;;;;;;;13.74;100.00;99697.38;5053639;28;19924;-77
2021/04/18 12:14:33;;;;;;;;;;;;;;;13.73;100.00;99688.19;5053698;28;19933;-77
2021/04/18 12:17:00;;;;;;;;;;;;;;;13.47;100.00;99696.69;5036028;28;19925;-77
2021/04/18 12:19:27;;;;;;;;;;;;;;;13.46;100.00;99695.91;5053664;28;20015;-77
2021/04/18 12:21:53;;;;;;;;;;;;;;;13.72;100.00;99692.19;5053631;28;19936;-77
2021/04/18 12:24:20;;;;;;;;;;;;;;;13.85;100.00;99689.56;5035739;28;19929;-77
2021/04/18 12:26:46;;;;;;;;;;;;;;;13.70;100.00;99682.63;5053516;28;19932;-77
2021/04/18 12:29:14;;;;;;;;;;;;;;;13.93;100.00;99685.41;5035798;28;19932;-77
2021/04/18 12:31:41;;;;;;;;;;;;;;;14.22;100.00;99675.94;5053451;28;20011;-77
2021/04/18 12:34:08;;;;;;;;;;;;;;;14.01;100.00;99675.59;5042849;28;19924;-77
2021/04/18 12:36:36;;;;;;;;;;;;;;;14.00;100.00;99674.00;5052351;28;20008;-77
2021/04/18 12:39:07;;;;;;;;;;;;;;;13.87;100.00;99675.88;5053277;28;19928;-77
2021/04/18 12:41:34;;;;;;;;;;;;;;;14.18;100.00;99682.88;5053499;28;20307;-77
2021/04/18 12:44:02;;;;;;;;;;;;;;;14.04;100.00;99675.53;5048316;28;19924;-77
2021/04/18 12:46:29;;;;;;;;;;;;;;;13.80;100.00;99679.63;5051952;28;19925;-77
2021/04/18 12:48:55;;;;;;;;;;;;;;;13.74;100.00;99677.72;5052758;28;20014;-77